Alasa — C4RW2 — position and weather

sailwx.info

Track history (hours):
 
Tides and Currents Weather Stations Pressure Air Temp Water Temp Dewpoint Dewpoint Depression Visibility Wind Speed Wind Dir Waves Ship Positions

Alasa

Last reported at 2018-Jan-18 00:51 UTC. Time now 2018-Jan-18 16:04 UTC.
Position N 36°34' E 027°33'.

Length 121 m; draft 4.6 m.

Type: Cargo ship. MMSI: 210001000.

Date/timePositionNaut miles runAvg speedWind from/ knotsBaromVisibWave heightAir tempDewpointWater temp
2018-Jan-18 00:51N 36°34' E 027°33'  
2018-Jan-12 15:00N 37°55' E 023°33'0 0.0
2018-Jan-12 14:30N 37°55' E 023°33'0 0.0
2018-Jan-12 14:00N 37°55' E 023°33'0 0.1
2018-Jan-12 13:30N 37°55' E 023°33'0 0.0
2018-Jan-12 13:00N 37°55' E 023°33'0 0.1
2018-Jan-12 12:30N 37°55' E 023°33'0 0.0
2018-Jan-12 12:00N 37°55' E 023°33'0 0.0
2018-Jan-12 11:30N 37°55' E 023°33'0 0.1
2018-Jan-12 11:00N 37°55' E 023°33'0 0.0
2018-Jan-12 10:30N 37°55' E 023°33'0 0.1
2018-Jan-12 10:00N 37°55' E 023°33'0 0.0
2018-Jan-12 09:30N 37°55' E 023°33'0 0.2
2018-Jan-12 09:00N 37°55' E 023°33'0 0.1
2018-Jan-12 08:30N 37°55' E 023°33'0 0.0
2018-Jan-12 08:01N 37°55' E 023°33'0 0.1
2018-Jan-12 07:30N 37°55' E 023°33'0 0.1
2018-Jan-12 07:01N 37°55' E 023°33'0 0.5
2018-Jan-12 06:30N 37°55' E 023°33'5 9.1
2018-Jan-12 06:01N 37°52' E 023°38'611.8
2018-Jan-12 05:30N 37°47' E 023°42'611.9
2018-Jan-12 05:00N 37°42' E 023°45'611.3
2018-Jan-12 04:30N 37°39' E 023°51'611.8
2018-Jan-12 04:00N 37°36' E 023°57'612.1
2018-Jan-12 03:30N 37°34' E 024°05'612.0
2018-Jan-12 03:00N 37°32' E 024°11'612.0
2018-Jan-12 02:28N 37°30' E 024°20'612.1
2018-Jan-12 02:00N 37°31' E 024°26'611.7
2018-Jan-12 01:30N 37°28' E 024°33'611.8
2018-Jan-12 01:00N 37°25' E 024°39'611.9
2018-Jan-12 00:30N 37°22' E 024°46'612.2
2018-Jan-12 00:00N 37°20' E 024°53'612.1
2018-Jan-11 23:29N 37°18' E 025°01'612.7
2018-Jan-11 23:00N 37°17' E 025°08'612.4
2018-Jan-11 22:30N 37°16' E 025°16'612.2
2018-Jan-11 22:00N 37°15' E 025°24'712.4
2018-Jan-11 21:27N 37°14' E 025°32'612.7
2018-Jan-11 21:00N 37°12' E 025°39'612.8
2018-Jan-11 20:30N 37°10' E 025°47'612.1
2018-Jan-11 20:00N 37°08' E 025°54'611.8
2018-Jan-11 19:30N 37°05' E 025°60'611.7
2018-Jan-11 19:00N 37°02' E 026°06'612.7
2018-Jan-11 18:30N 36°58' E 026°12'612.7
2018-Jan-11 18:00N 36°55' E 026°19'612.7
2018-Jan-11 17:30N 36°51' E 026°26'612.8
2018-Jan-11 17:00N 36°48' E 026°33'612.8
2018-Jan-11 16:30N 36°44' E 026°39'612.4
2018-Jan-11 16:00N 36°41' E 026°46'612.3
2018-Jan-11 15:30N 36°37' E 026°52'32512.6
2018-Jan-10 13:46N 34°37' E 033°03'310.2
2018-Jan-10 13:30N 34°39' E 033°02'1 1.0
2018-Jan-10 12:59N 34°39' E 033°01'0 0.0
2018-Jan-10 12:29N 34°39' E 033°01'0 0.0
2018-Jan-10 11:59N 34°39' E 033°01'0 0.0
2018-Jan-10 11:29N 34°39' E 033°01'0 0.0
2018-Jan-10 10:53N 34°39' E 033°01'0 0.0
2018-Jan-10 10:29N 34°39' E 033°01'0 0.0
2018-Jan-10 09:59N 34°39' E 033°01'0 0.0
2018-Jan-10 09:29N 34°39' E 033°01'0 0.0
2018-Jan-10 08:59N 34°39' E 033°01'0 0.0
2018-Jan-10 08:29N 34°39' E 033°01'0 0.0
2018-Jan-10 07:59N 34°39' E 033°01'0 0.0
2018-Jan-10 07:29N 34°39' E 033°01'0 0.0
2018-Jan-10 06:59N 34°39' E 033°01'0 0.0
2018-Jan-10 06:29N 34°39' E 033°01'0 0.0
2018-Jan-10 05:59N 34°39' E 033°01'0 0.0
2018-Jan-10 05:29N 34°39' E 033°01'0 0.0
2018-Jan-10 05:00N 34°39' E 033°01'2 3.1
2018-Jan-10 04:30N 34°39' E 033°03'1 0.2
2018-Jan-10 00:13N 34°40' E 033°04'2 0.1
2018-Jan-08 15:29N 34°38' E 033°04'2 5.0
2018-Jan-08 15:00N 34°39' E 033°01'0 0.0
2018-Jan-08 14:30N 34°39' E 033°01'0 0.0
2018-Jan-08 14:00N 34°39' E 033°01'0 0.0
2018-Jan-08 13:31N 34°39' E 033°01'0 0.0
2018-Jan-08 13:01N 34°39' E 033°01'0 0.0
2018-Jan-08 12:30N 34°39' E 033°01'0 0.0
2018-Jan-08 12:00N 34°39' E 033°01'0 0.0
2018-Jan-08 11:31N 34°39' E 033°01'0 0.0
2018-Jan-08 11:01N 34°39' E 033°01'0 0.0
2018-Jan-08 10:30N 34°39' E 033°01'0 0.0
2018-Jan-08 10:01N 34°39' E 033°01'0 0.0
2018-Jan-08 09:31N 34°39' E 033°01'0 0.0
2018-Jan-08 09:01N 34°39' E 033°01'0 0.0
2018-Jan-08 08:31N 34°39' E 033°01'0 0.0
2018-Jan-08 08:00N 34°39' E 033°01'0 0.0
2018-Jan-08 07:30N 34°39' E 033°01'0 0.0
2018-Jan-08 07:01N 34°39' E 033°01'0 0.0
2018-Jan-08 06:30N 34°39' E 033°01'0 0.0
2018-Jan-08 06:01N 34°39' E 033°01'0 0.1
2018-Jan-08 05:31N 34°39' E 033°01'2 3.5
2018-Jan-08 05:00N 34°40' E 033°03'  
Track history (hours):
 
Tides and Currents Weather Stations Pressure Air Temp Water Temp Dewpoint Dewpoint Depression Visibility Wind Speed Wind Dir Waves Ship Positions

Alasa

Last reported at 2018-Jan-18 00:51 UTC. Time now 2018-Jan-18 16:04 UTC.
Position N 36°34' E 027°33'.

Length 121 m; draft 4.6 m.

Type: Cargo ship. MMSI: 210001000.

Date/timePositionNaut miles runAvg speedWind from/ knotsBaromVisibWave heightAir tempDewpointWater temp
2018-Jan-18 00:51N 36°34' E 027°33'  
2018-Jan-12 15:00N 37°55' E 023°33'0 0.0
2018-Jan-12 14:30N 37°55' E 023°33'0 0.0
2018-Jan-12 14:00N 37°55' E 023°33'0 0.1
2018-Jan-12 13:30N 37°55' E 023°33'0 0.0
2018-Jan-12 13:00N 37°55' E 023°33'0 0.1
2018-Jan-12 12:30N 37°55' E 023°33'0 0.0
2018-Jan-12 12:00N 37°55' E 023°33'0 0.0
2018-Jan-12 11:30N 37°55' E 023°33'0 0.1
2018-Jan-12 11:00N 37°55' E 023°33'0 0.0
2018-Jan-12 10:30N 37°55' E 023°33'0 0.1
2018-Jan-12 10:00N 37°55' E 023°33'0 0.0
2018-Jan-12 09:30N 37°55' E 023°33'0 0.2
2018-Jan-12 09:00N 37°55' E 023°33'0 0.1
2018-Jan-12 08:30N 37°55' E 023°33'0 0.0
2018-Jan-12 08:01N 37°55' E 023°33'0 0.1
2018-Jan-12 07:30N 37°55' E 023°33'0 0.1
2018-Jan-12 07:01N 37°55' E 023°33'0 0.5
2018-Jan-12 06:30N 37°55' E 023°33'5 9.1
2018-Jan-12 06:01N 37°52' E 023°38'611.8
2018-Jan-12 05:30N 37°47' E 023°42'611.9
2018-Jan-12 05:00N 37°42' E 023°45'611.3
2018-Jan-12 04:30N 37°39' E 023°51'611.8
2018-Jan-12 04:00N 37°36' E 023°57'612.1
2018-Jan-12 03:30N 37°34' E 024°05'612.0
2018-Jan-12 03:00N 37°32' E 024°11'612.0
2018-Jan-12 02:28N 37°30' E 024°20'612.1
2018-Jan-12 02:00N 37°31' E 024°26'611.7
2018-Jan-12 01:30N 37°28' E 024°33'611.8
2018-Jan-12 01:00N 37°25' E 024°39'611.9
2018-Jan-12 00:30N 37°22' E 024°46'612.2
2018-Jan-12 00:00N 37°20' E 024°53'612.1
2018-Jan-11 23:29N 37°18' E 025°01'612.7
2018-Jan-11 23:00N 37°17' E 025°08'612.4
2018-Jan-11 22:30N 37°16' E 025°16'612.2
2018-Jan-11 22:00N 37°15' E 025°24'712.4
2018-Jan-11 21:27N 37°14' E 025°32'612.7
2018-Jan-11 21:00N 37°12' E 025°39'612.8
2018-Jan-11 20:30N 37°10' E 025°47'612.1
2018-Jan-11 20:00N 37°08' E 025°54'611.8
2018-Jan-11 19:30N 37°05' E 025°60'611.7
2018-Jan-11 19:00N 37°02' E 026°06'612.7
2018-Jan-11 18:30N 36°58' E 026°12'612.7
2018-Jan-11 18:00N 36°55' E 026°19'612.7
2018-Jan-11 17:30N 36°51' E 026°26'612.8
2018-Jan-11 17:00N 36°48' E 026°33'612.8
2018-Jan-11 16:30N 36°44' E 026°39'612.4
2018-Jan-11 16:00N 36°41' E 026°46'612.3
2018-Jan-11 15:30N 36°37' E 026°52'32512.6
2018-Jan-10 13:46N 34°37' E 033°03'310.2
2018-Jan-10 13:30N 34°39' E 033°02'1 1.0
2018-Jan-10 12:59N 34°39' E 033°01'0 0.0
2018-Jan-10 12:29N 34°39' E 033°01'0 0.0
2018-Jan-10 11:59N 34°39' E 033°01'0 0.0
2018-Jan-10 11:29N 34°39' E 033°01'0 0.0
2018-Jan-10 10:53N 34°39' E 033°01'0 0.0
2018-Jan-10 10:29N 34°39' E 033°01'0 0.0
2018-Jan-10 09:59N 34°39' E 033°01'0 0.0
2018-Jan-10 09:29N 34°39' E 033°01'0 0.0
2018-Jan-10 08:59N 34°39' E 033°01'0 0.0
2018-Jan-10 08:29N 34°39' E 033°01'0 0.0
2018-Jan-10 07:59N 34°39' E 033°01'0 0.0
2018-Jan-10 07:29N 34°39' E 033°01'0 0.0
2018-Jan-10 06:59N 34°39' E 033°01'0 0.0
2018-Jan-10 06:29N 34°39' E 033°01'0 0.0
2018-Jan-10 05:59N 34°39' E 033°01'0 0.0
2018-Jan-10 05:29N 34°39' E 033°01'0 0.0
2018-Jan-10 05:00N 34°39' E 033°01'2 3.1
2018-Jan-10 04:30N 34°39' E 033°03'1 0.2
2018-Jan-10 00:13N 34°40' E 033°04'2 0.1
2018-Jan-08 15:29N 34°38' E 033°04'2 5.0
2018-Jan-08 15:00N 34°39' E 033°01'0 0.0
2018-Jan-08 14:30N 34°39' E 033°01'0 0.0
2018-Jan-08 14:00N 34°39' E 033°01'0 0.0
2018-Jan-08 13:31N 34°39' E 033°01'0 0.0
2018-Jan-08 13:01N 34°39' E 033°01'0 0.0
2018-Jan-08 12:30N 34°39' E 033°01'0 0.0
2018-Jan-08 12:00N 34°39' E 033°01'0 0.0
2018-Jan-08 11:31N 34°39' E 033°01'0 0.0
2018-Jan-08 11:01N 34°39' E 033°01'0 0.0
2018-Jan-08 10:30N 34°39' E 033°01'0 0.0
2018-Jan-08 10:01N 34°39' E 033°01'0 0.0
2018-Jan-08 09:31N 34°39' E 033°01'0 0.0
2018-Jan-08 09:01N 34°39' E 033°01'0 0.0
2018-Jan-08 08:31N 34°39' E 033°01'0 0.0
2018-Jan-08 08:00N 34°39' E 033°01'0 0.0
2018-Jan-08 07:30N 34°39' E 033°01'0 0.0
2018-Jan-08 07:01N 34°39' E 033°01'0 0.0
2018-Jan-08 06:30N 34°39' E 033°01'0 0.0
2018-Jan-08 06:01N 34°39' E 033°01'0 0.1
2018-Jan-08 05:31N 34°39' E 033°01'2 3.5
2018-Jan-08 05:00N 34°40' E 033°03'  

Dump ship's entire track history